sensor_id;sensor_type;location;lat;lon;timestamp;P1;durP1;ratioP1;P2;durP2;ratioP2
28068;SDS011;15382;47.578;8.086;2023-12-04T00:05:56;54.63;;;16.88;;
28068;SDS011;15382;47.578;8.086;2023-12-04T00:15:57;54.20;;;18.42;;
28068;SDS011;15382;47.578;8.086;2023-12-04T00:25:58;58.00;;;18.42;;
28068;SDS011;15382;47.578;8.086;2023-12-04T00:35:59;52.40;;;18.38;;
28068;SDS011;15382;47.578;8.086;2023-12-04T00:45:59;60.30;;;17.58;;
28068;SDS011;15382;47.578;8.086;2023-12-04T00:56:00;54.80;;;17.25;;
28068;SDS011;15382;47.578;8.086;2023-12-04T01:06:01;55.28;;;17.65;;
28068;SDS011;15382;47.578;8.086;2023-12-04T01:16:02;46.67;;;18.23;;
28068;SDS011;15382;47.578;8.086;2023-12-04T01:26:03;44.55;;;16.73;;
28068;SDS011;15382;47.578;8.086;2023-12-04T01:36:04;52.90;;;15.70;;
28068;SDS011;15382;47.578;8.086;2023-12-04T01:46:05;50.03;;;17.42;;
28068;SDS011;15382;47.578;8.086;2023-12-04T01:56:07;51.65;;;17.27;;
28068;SDS011;15382;47.578;8.086;2023-12-04T02:06:09;56.13;;;17.38;;
28068;SDS011;15382;47.578;8.086;2023-12-04T02:16:11;55.25;;;18.63;;
28068;SDS011;15382;47.578;8.086;2023-12-04T02:26:15;58.38;;;19.10;;
28068;SDS011;15382;47.578;8.086;2023-12-04T02:36:18;51.08;;;18.35;;
28068;SDS011;15382;47.578;8.086;2023-12-04T02:46:19;64.15;;;19.73;;
28068;SDS011;15382;47.578;8.086;2023-12-04T02:56:21;54.15;;;16.60;;
28068;SDS011;15382;47.578;8.086;2023-12-04T03:06:21;44.42;;;14.57;;
28068;SDS011;15382;47.578;8.086;2023-12-04T03:16:22;42.67;;;13.55;;
28068;SDS011;15382;47.578;8.086;2023-12-04T03:26:23;51.97;;;15.85;;
28068;SDS011;15382;47.578;8.086;2023-12-04T03:36:24;45.47;;;13.85;;
28068;SDS011;15382;47.578;8.086;2023-12-04T03:46:24;54.42;;;16.75;;
28068;SDS011;15382;47.578;8.086;2023-12-04T03:56:26;53.33;;;16.00;;
28068;SDS011;15382;47.578;8.086;2023-12-04T04:06:26;63.08;;;18.92;;
28068;SDS011;15382;47.578;8.086;2023-12-04T04:16:27;49.53;;;18.50;;
28068;SDS011;15382;47.578;8.086;2023-12-04T04:26:28;80.72;;;20.35;;
28068;SDS011;15382;47.578;8.086;2023-12-04T04:36:28;62.97;;;17.95;;
28068;SDS011;15382;47.578;8.086;2023-12-04T04:46:29;68.57;;;18.58;;
28068;SDS011;15382;47.578;8.086;2023-12-04T04:56:30;69.47;;;18.67;;
28068;SDS011;15382;47.578;8.086;2023-12-04T05:06:30;74.07;;;20.55;;
28068;SDS011;15382;47.578;8.086;2023-12-04T05:16:31;73.30;;;19.83;;
28068;SDS011;15382;47.578;8.086;2023-12-04T05:26:32;90.05;;;19.80;;
28068;SDS011;15382;47.578;8.086;2023-12-04T05:36:33;64.53;;;20.20;;
28068;SDS011;15382;47.578;8.086;2023-12-04T05:46:33;61.92;;;17.08;;
28068;SDS011;15382;47.578;8.086;2023-12-04T05:56:34;75.15;;;20.95;;
28068;SDS011;15382;47.578;8.086;2023-12-04T06:06:35;74.00;;;21.00;;
28068;SDS011;15382;47.578;8.086;2023-12-04T06:16:36;72.72;;;20.83;;
28068;SDS011;15382;47.578;8.086;2023-12-04T06:26:37;83.68;;;20.63;;
28068;SDS011;15382;47.578;8.086;2023-12-04T06:36:43;89.18;;;23.30;;
28068;SDS011;15382;47.578;8.086;2023-12-04T06:46:44;76.35;;;21.77;;
28068;SDS011;15382;47.578;8.086;2023-12-04T06:56:50;79.05;;;19.52;;
28068;SDS011;15382;47.578;8.086;2023-12-04T07:06:51;83.32;;;20.48;;
28068;SDS011;15382;47.578;8.086;2023-12-04T07:16:51;71.13;;;19.60;;
28068;SDS011;15382;47.578;8.086;2023-12-04T07:26:52;64.13;;;19.73;;
28068;SDS011;15382;47.578;8.086;2023-12-04T07:36:53;59.60;;;17.73;;
28068;SDS011;15382;47.578;8.086;2023-12-04T07:46:53;78.55;;;20.48;;
28068;SDS011;15382;47.578;8.086;2023-12-04T07:56:54;65.82;;;18.50;;
28068;SDS011;15382;47.578;8.086;2023-12-04T08:06:55;56.55;;;17.65;;
28068;SDS011;15382;47.578;8.086;2023-12-04T08:16:56;43.40;;;14.88;;
28068;SDS011;15382;47.578;8.086;2023-12-04T08:26:57;64.13;;;17.08;;
28068;SDS011;15382;47.578;8.086;2023-12-04T08:36:58;51.80;;;16.65;;
28068;SDS011;15382;47.578;8.086;2023-12-04T08:46:58;58.33;;;15.40;;
28068;SDS011;15382;47.578;8.086;2023-12-04T08:57:00;46.00;;;14.55;;
28068;SDS011;15382;47.578;8.086;2023-12-04T09:07:00;45.38;;;14.52;;
28068;SDS011;15382;47.578;8.086;2023-12-04T09:17:01;45.35;;;15.38;;
28068;SDS011;15382;47.578;8.086;2023-12-04T09:27:03;54.70;;;16.77;;
28068;SDS011;15382;47.578;8.086;2023-12-04T09:37:06;48.97;;;16.63;;
28068;SDS011;15382;47.578;8.086;2023-12-04T09:47:09;53.55;;;18.10;;
28068;SDS011;15382;47.578;8.086;2023-12-04T09:57:10;52.50;;;18.08;;
28068;SDS011;15382;47.578;8.086;2023-12-04T10:07:13;52.58;;;16.77;;
28068;SDS011;15382;47.578;8.086;2023-12-04T10:17:14;50.38;;;17.65;;
28068;SDS011;15382;47.578;8.086;2023-12-04T10:27:17;42.53;;;14.68;;
28068;SDS011;15382;47.578;8.086;2023-12-04T10:37:17;39.50;;;14.77;;
28068;SDS011;15382;47.578;8.086;2023-12-04T10:47:20;39.60;;;15.10;;
28068;SDS011;15382;47.578;8.086;2023-12-04T10:57:24;59.55;;;17.00;;
28068;SDS011;15382;47.578;8.086;2023-12-04T11:07:27;41.97;;;16.08;;
28068;SDS011;15382;47.578;8.086;2023-12-04T11:17:30;43.40;;;15.80;;
28068;SDS011;15382;47.578;8.086;2023-12-04T11:27:34;46.63;;;15.95;;
28068;SDS011;15382;47.578;8.086;2023-12-04T11:37:36;49.28;;;15.45;;
28068;SDS011;15382;47.578;8.086;2023-12-04T11:47:51;51.15;;;17.60;;
28068;SDS011;15382;47.578;8.086;2023-12-04T11:57:54;45.20;;;17.48;;
28068;SDS011;15382;47.578;8.086;2023-12-04T12:07:56;43.88;;;16.75;;
28068;SDS011;15382;47.578;8.086;2023-12-04T12:18:00;45.83;;;16.45;;
28068;SDS011;15382;47.578;8.086;2023-12-04T12:28:04;53.38;;;18.15;;
28068;SDS011;15382;47.578;8.086;2023-12-04T12:38:05;48.22;;;18.75;;
28068;SDS011;15382;47.578;8.086;2023-12-04T12:48:10;57.00;;;20.02;;
28068;SDS011;15382;47.578;8.086;2023-12-04T12:58:14;51.45;;;19.00;;
28068;SDS011;15382;47.578;8.086;2023-12-04T13:08:15;52.15;;;19.52;;
28068;SDS011;15382;47.578;8.086;2023-12-04T13:18:16;65.18;;;19.65;;
28068;SDS011;15382;47.578;8.086;2023-12-04T13:28:17;62.33;;;19.10;;
28068;SDS011;15382;47.578;8.086;2023-12-04T13:38:17;58.20;;;19.30;;
28068;SDS011;15382;47.578;8.086;2023-12-04T13:48:18;53.90;;;17.85;;
28068;SDS011;15382;47.578;8.086;2023-12-04T13:58:21;66.03;;;20.40;;
28068;SDS011;15382;47.578;8.086;2023-12-04T14:08:44;59.97;;;19.27;;
28068;SDS011;15382;47.578;8.086;2023-12-04T14:18:46;63.22;;;20.63;;
28068;SDS011;15382;47.578;8.086;2023-12-04T14:28:46;54.20;;;19.95;;
28068;SDS011;15382;47.578;8.086;2023-12-04T14:38:47;68.97;;;20.13;;
28068;SDS011;15382;47.578;8.086;2023-12-04T14:48:48;59.85;;;19.60;;
28068;SDS011;15382;47.578;8.086;2023-12-04T14:58:48;63.67;;;19.05;;
28068;SDS011;15382;47.578;8.086;2023-12-04T15:09:08;67.53;;;21.45;;
28068;SDS011;15382;47.578;8.086;2023-12-04T15:19:38;62.20;;;20.92;;
28068;SDS011;15382;47.578;8.086;2023-12-04T15:29:56;60.05;;;19.13;;
28068;SDS011;15382;47.578;8.086;2023-12-04T15:39:56;61.67;;;20.17;;
28068;SDS011;15382;47.578;8.086;2023-12-04T15:49:58;72.80;;;21.55;;
28068;SDS011;15382;47.578;8.086;2023-12-04T15:59:59;70.25;;;21.90;;
28068;SDS011;15382;47.578;8.086;2023-12-04T16:10:00;77.00;;;24.17;;
28068;SDS011;15382;47.578;8.086;2023-12-04T16:20:04;65.10;;;22.38;;
28068;SDS011;15382;47.578;8.086;2023-12-04T16:30:10;63.60;;;23.23;;
28068;SDS011;15382;47.578;8.086;2023-12-04T16:40:11;62.42;;;20.63;;
28068;SDS011;15382;47.578;8.086;2023-12-04T16:50:12;65.63;;;21.33;;
28068;SDS011;15382;47.578;8.086;2023-12-04T17:00:13;57.40;;;21.38;;
28068;SDS011;15382;47.578;8.086;2023-12-04T17:10:14;74.90;;;24.23;;
28068;SDS011;15382;47.578;8.086;2023-12-04T17:20:15;81.07;;;24.17;;
28068;SDS011;15382;47.578;8.086;2023-12-04T17:30:16;70.10;;;23.65;;
28068;SDS011;15382;47.578;8.086;2023-12-04T17:40:17;75.00;;;23.27;;
28068;SDS011;15382;47.578;8.086;2023-12-04T17:50:19;61.88;;;22.33;;
28068;SDS011;15382;47.578;8.086;2023-12-04T18:00:20;55.13;;;20.70;;
28068;SDS011;15382;47.578;8.086;2023-12-04T18:10:21;62.20;;;21.58;;
28068;SDS011;15382;47.578;8.086;2023-12-04T18:20:22;54.65;;;21.23;;
28068;SDS011;15382;47.578;8.086;2023-12-04T18:30:23;56.47;;;20.90;;
28068;SDS011;15382;47.578;8.086;2023-12-04T18:40:25;54.97;;;20.38;;
28068;SDS011;15382;47.578;8.086;2023-12-04T18:50:27;60.17;;;20.40;;
28068;SDS011;15382;47.578;8.086;2023-12-04T19:00:31;60.72;;;22.25;;
28068;SDS011;15382;47.578;8.086;2023-12-04T19:10:31;65.20;;;22.40;;
28068;SDS011;15382;47.578;8.086;2023-12-04T19:20:32;70.63;;;21.73;;
28068;SDS011;15382;47.578;8.086;2023-12-04T19:30:33;70.28;;;23.35;;
28068;SDS011;15382;47.578;8.086;2023-12-04T19:40:36;72.55;;;26.25;;
28068;SDS011;15382;47.578;8.086;2023-12-04T19:50:36;67.95;;;23.65;;
28068;SDS011;15382;47.578;8.086;2023-12-04T20:00:38;67.80;;;22.92;;
28068;SDS011;15382;47.578;8.086;2023-12-04T20:10:39;77.30;;;25.65;;
28068;SDS011;15382;47.578;8.086;2023-12-04T20:20:40;74.53;;;24.08;;
28068;SDS011;15382;47.578;8.086;2023-12-04T20:30:41;81.82;;;25.08;;
28068;SDS011;15382;47.578;8.086;2023-12-04T20:40:44;73.88;;;26.90;;
28068;SDS011;15382;47.578;8.086;2023-12-04T20:50:46;79.05;;;25.50;;
28068;SDS011;15382;47.578;8.086;2023-12-04T21:00:47;81.40;;;29.77;;
28068;SDS011;15382;47.578;8.086;2023-12-04T21:10:48;71.47;;;24.58;;
28068;SDS011;15382;47.578;8.086;2023-12-04T21:20:49;78.10;;;25.45;;
28068;SDS011;15382;47.578;8.086;2023-12-04T21:30:49;77.70;;;26.67;;
28068;SDS011;15382;47.578;8.086;2023-12-04T21:40:52;81.32;;;28.30;;
28068;SDS011;15382;47.578;8.086;2023-12-04T21:50:53;82.93;;;27.30;;
28068;SDS011;15382;47.578;8.086;2023-12-04T22:00:53;83.28;;;28.70;;
28068;SDS011;15382;47.578;8.086;2023-12-04T22:10:57;78.43;;;27.83;;
28068;SDS011;15382;47.578;8.086;2023-12-04T22:20:58;71.15;;;27.48;;
28068;SDS011;15382;47.578;8.086;2023-12-04T22:30:59;81.70;;;27.83;;
28068;SDS011;15382;47.578;8.086;2023-12-04T22:40:59;72.43;;;26.35;;
28068;SDS011;15382;47.578;8.086;2023-12-04T22:51:00;63.88;;;24.55;;
28068;SDS011;15382;47.578;8.086;2023-12-04T23:01:01;75.03;;;26.73;;
28068;SDS011;15382;47.578;8.086;2023-12-04T23:11:02;68.35;;;24.75;;
28068;SDS011;15382;47.578;8.086;2023-12-04T23:21:06;73.75;;;26.33;;
28068;SDS011;15382;47.578;8.086;2023-12-04T23:31:07;72.05;;;24.02;;
28068;SDS011;15382;47.578;8.086;2023-12-04T23:41:08;78.90;;;25.92;;
28068;SDS011;15382;47.578;8.086;2023-12-04T23:51:09;67.72;;;24.58;;
